createdAt,value
2022-11-18T00:01:22.065Z,67602.44
2022-11-18T00:03:51.739Z,67607.31
2022-11-18T00:06:24.980Z,67605.81
2022-11-18T00:08:54.060Z,67612.97
2022-11-18T00:12:02.350Z,67602.44
2022-11-18T00:14:30.655Z,67591.38
2022-11-18T00:17:01.506Z,67582.72
2022-11-18T00:19:34.644Z,67584.63
2022-11-18T00:22:02.700Z,67586.66
2022-11-18T00:24:30.905Z,67595.47
2022-11-18T00:26:58.681Z,67592.28
2022-11-18T00:29:29.017Z,67590.59
2022-11-18T00:31:57.654Z,67596.59
2022-11-18T00:34:26.892Z,67596.81
2022-11-18T00:36:54.558Z,67601.31
2022-11-18T00:39:23.170Z,67585.53
2022-11-18T00:42:09.387Z,67587.56
2022-11-18T00:44:40.655Z,67593.78
2022-11-18T00:47:08.084Z,67581.78
2022-11-18T00:49:35.456Z,67598.69
2022-11-18T00:52:02.954Z,67604.13
2022-11-18T00:54:30.286Z,67607.50
2022-11-18T00:56:57.746Z,67615.41
2022-11-18T00:59:25.575Z,67617.31
2022-11-18T01:01:52.901Z,67622.19
2022-11-18T01:04:23.304Z,67620.69
2022-11-18T01:06:51.021Z,67607.16
2022-11-18T01:09:18.778Z,67607.72
2022-11-18T01:12:04.940Z,67601.16
2022-11-18T01:14:32.599Z,67612.78
2022-11-18T01:16:59.922Z,67603.00
2022-11-18T01:19:27.566Z,67599.63
2022-11-18T01:21:56.631Z,67591.94
2022-11-18T01:24:24.173Z,67576.34
2022-11-18T01:26:51.580Z,67582.72
2022-11-18T01:29:19.377Z,67582.91
2022-11-18T01:32:09.273Z,67595.47
2022-11-18T01:34:34.271Z,67585.72
2022-11-18T01:37:01.623Z,67596.81
2022-11-18T01:39:29.758Z,67593.25
2022-11-18T01:41:57.255Z,67590.03
2022-11-18T01:44:52.687Z,67582.72
2022-11-18T01:47:21.047Z,67583.28
2022-11-18T01:49:48.661Z,67585.72
2022-11-18T01:52:16.010Z,67587.22
2022-11-18T01:54:48.474Z,67600.19
2022-11-18T01:57:19.842Z,67599.78
2022-11-18T01:59:50.729Z,67584.97
2022-11-18T02:02:18.282Z,67599.06
2022-11-18T02:04:50.252Z,67603.56
2022-11-18T02:07:18.290Z,67598.69
2022-11-18T02:09:45.916Z,67600.34
2022-11-18T02:12:14.050Z,67585.91
2022-11-18T02:14:45.858Z,67597.16
2022-11-18T02:17:39.707Z,67586.66
2022-11-18T02:20:42.478Z,67582.72
2022-11-18T02:23:38.459Z,67593.78
2022-11-18T02:26:47.051Z,67587.38
2022-11-18T02:29:36.867Z,67597.56
2022-11-18T02:32:12.278Z,67601.31
2022-11-18T02:34:53.099Z,67591.94
2022-11-18T02:37:48.108Z,67597.94
2022-11-18T02:40:25.479Z,67590.03
2022-11-18T02:43:00.544Z,67586.66
2022-11-18T02:45:30.322Z,67594.91
2022-11-18T02:48:03.120Z,67592.88
2022-11-18T02:50:33.052Z,67599.25
2022-11-18T02:53:03.391Z,67594.53
2022-11-18T02:55:35.051Z,67598.47
2022-11-18T02:58:05.254Z,67601.31
2022-11-18T03:00:33.947Z,67593.97
2022-11-18T03:03:27.182Z,67595.13
2022-11-18T03:06:16.759Z,67596.09
2022-11-18T03:09:07.958Z,67597.56
2022-11-18T03:12:07.517Z,67596.63
2022-11-18T03:15:04.256Z,67606.19
2022-11-18T03:18:13.945Z,67594.75
2022-11-18T03:20:58.782Z,67584.63
2022-11-18T03:23:32.628Z,67587.97
2022-11-18T03:26:10.018Z,67592.13
2022-11-18T03:29:04.777Z,67593.44
2022-11-18T03:31:41.508Z,67587.41
2022-11-18T03:34:22.011Z,67591.72
2022-11-18T03:37:00.468Z,67589.06
2022-11-18T03:39:32.022Z,67559.81
2022-11-18T03:42:16.686Z,67544.00
2022-11-18T03:44:52.826Z,67523.94
2022-11-18T03:47:27.388Z,67527.84
2022-11-18T03:50:04.671Z,67510.38
2022-11-18T03:52:36.320Z,67515.66
2022-11-18T03:55:11.620Z,67525.59
2022-11-18T03:57:50.777Z,67517.34
2022-11-18T04:00:20.454Z,67506.06
2022-11-18T04:02:51.014Z,67505.50
2022-11-18T04:05:19.515Z,67494.09
2022-11-18T04:07:57.585Z,67488.81
2022-11-18T04:10:34.126Z,67480.72
2022-11-18T04:13:23.246Z,67466.44
2022-11-18T04:15:51.367Z,67458.00
2022-11-18T04:18:19.504Z,67455.75
2022-11-18T04:20:46.851Z,67440.75
2022-11-18T04:23:14.271Z,67440.19
2022-11-18T04:25:41.566Z,67432.84
2022-11-18T04:28:09.797Z,67425.19
2022-11-18T04:30:37.101Z,67430.41
2022-11-18T04:33:06.035Z,67423.88
2022-11-18T04:35:33.458Z,67419.34
2022-11-18T04:38:01.212Z,67424.19
2022-11-18T04:40:28.608Z,67435.47
2022-11-18T04:42:55.887Z,67421.25
2022-11-18T04:45:23.702Z,67416.38
2022-11-18T04:47:50.896Z,67423.28
2022-11-18T04:50:18.385Z,67422.16
2022-11-18T04:52:45.872Z,67414.84
2022-11-18T04:55:13.739Z,67417.66
2022-11-18T04:57:41.125Z,67418.38
2022-11-18T05:00:08.869Z,67411.69
2022-11-18T05:02:50.888Z,67424.41
2022-11-18T05:05:18.588Z,67406.41
2022-11-18T05:07:46.467Z,67408.44
2022-11-18T05:10:14.178Z,67405.63
2022-11-18T05:12:52.596Z,67401.34
2022-11-18T05:15:24.554Z,67392.31
2022-11-18T05:17:52.983Z,67387.69
2022-11-18T05:20:20.423Z,67391.97
2022-11-18T05:22:47.765Z,67391.22
2022-11-18T05:25:16.480Z,67393.47
2022-11-18T05:27:44.908Z,67387.84
2022-11-18T05:30:13.248Z,67370.59
2022-11-18T05:32:51.239Z,67367.00
2022-11-18T05:35:18.740Z,67367.56
2022-11-18T05:37:46.458Z,67368.13
2022-11-18T05:40:14.018Z,67371.50
2022-11-18T05:42:59.863Z,67373.78
2022-11-18T05:45:27.318Z,67370.94
2022-11-18T05:48:01.384Z,67380.31
2022-11-18T05:50:29.055Z,67384.66
2022-11-18T05:52:57.277Z,67374.31
2022-11-18T05:55:30.306Z,67370.94
2022-11-18T05:57:58.153Z,67362.72
2022-11-18T06:00:25.475Z,67364.41
2022-11-18T06:02:55.080Z,67357.44
2022-11-18T06:05:24.651Z,67360.06
2022-11-18T06:07:55.847Z,67346.41
2022-11-18T06:10:35.900Z,67343.94
2022-11-18T06:13:07.360Z,67342.81
2022-11-18T06:15:40.081Z,67335.16
2022-11-18T06:18:36.198Z,67334.94
2022-11-18T06:21:05.994Z,67332.50
2022-11-18T06:23:36.756Z,67308.34
2022-11-18T06:26:04.455Z,67313.00
2022-11-18T06:28:32.293Z,67312.78
2022-11-18T06:30:59.808Z,67310.75
2022-11-18T06:33:27.071Z,67309.44
2022-11-18T06:35:54.501Z,67296.69
2022-11-18T06:38:25.177Z,67298.94
2022-11-18T06:40:52.578Z,67296.13
2022-11-18T06:43:38.939Z,67293.88
2022-11-18T06:46:28.057Z,67287.91
2022-11-18T06:48:55.892Z,67289.72
2022-11-18T06:51:23.596Z,67282.84
2022-11-18T06:53:51.623Z,67280.94
2022-11-18T06:56:21.182Z,67283.75
2022-11-18T06:58:53.261Z,67280.16
2022-11-18T07:01:23.429Z,67283.91
2022-11-18T07:03:52.588Z,67277.56
2022-11-18T07:06:23.227Z,67274.19
2022-11-18T07:08:51.391Z,67264.28
2022-11-18T07:11:21.321Z,67268.56
2022-11-18T07:13:49.220Z,67265.19
2022-11-18T07:16:24.934Z,67253.41
2022-11-18T07:18:54.463Z,67257.69
2022-11-18T07:21:29.015Z,67254.88
2022-11-18T07:23:57.520Z,67249.81
2022-11-18T07:26:24.992Z,67244.41
2022-11-18T07:28:54.074Z,67248.50
2022-11-18T07:31:21.771Z,67240.09
2022-11-18T07:33:54.739Z,67249.81
2022-11-18T07:36:25.543Z,67240.69
2022-11-18T07:38:53.384Z,67241.59
2022-11-18T07:41:23.470Z,67246.44
2022-11-18T07:43:56.164Z,67241.22
2022-11-18T07:46:44.773Z,67241.22
2022-11-18T07:49:12.487Z,67230.91
2022-11-18T07:51:41.080Z,67238.00
2022-11-18T07:54:11.093Z,67230.91
2022-11-18T07:56:38.578Z,67231.63
2022-11-18T07:59:07.945Z,67230.91
2022-11-18T08:01:35.937Z,67234.84
2022-11-18T08:04:14.085Z,67223.59
2022-11-18T08:06:41.538Z,67230.47
2022-11-18T08:09:09.668Z,67230.47
2022-11-18T08:11:37.283Z,67215.38
2022-11-18T08:14:05.122Z,67219.47
2022-11-18T08:16:32.646Z,67214.63
2022-11-18T08:19:01.033Z,67214.03
2022-11-18T08:21:28.629Z,67219.47
2022-11-18T08:23:57.943Z,67216.31
2022-11-18T08:26:26.644Z,67218.53
2022-11-18T08:28:54.626Z,67221.91
2022-11-18T08:31:24.936Z,67227.88
2022-11-18T08:34:07.577Z,67222.47
2022-11-18T08:36:37.738Z,67236.66
2022-11-18T08:39:08.186Z,67220.63
2022-11-18T08:41:37.066Z,67221.34
2022-11-18T08:44:05.693Z,67215.94
2022-11-18T08:46:36.183Z,67207.84
2022-11-18T08:49:03.704Z,67199.44
2022-11-18T08:51:31.341Z,67203.72
2022-11-18T08:53:58.958Z,67197.19
2022-11-18T08:56:26.472Z,67188.41
2022-11-18T08:58:54.505Z,67193.59
2022-11-18T09:01:22.666Z,67191.91
2022-11-18T09:03:50.315Z,67193.03
2022-11-18T09:06:29.507Z,67181.03
2022-11-18T09:09:02.070Z,67165.16
2022-11-18T09:11:34.552Z,67167.75
2022-11-18T09:16:50.245Z,67156.94
2022-11-18T09:22:11.240Z,67145.84
2022-11-18T09:24:39.728Z,67135.94
2022-11-18T09:27:15.234Z,67132.03
2022-11-18T09:29:46.532Z,67134.81
2022-11-18T09:32:14.074Z,67139.66
2022-11-18T09:34:43.221Z,67135.94
2022-11-18T09:37:10.765Z,67125.81
2022-11-18T09:39:38.513Z,67116.84
2022-11-18T09:42:17.932Z,67115.53
2022-11-18T09:45:44.614Z,67114.03
2022-11-18T09:48:48.376Z,67093.47
2022-11-18T09:51:19.531Z,67075.50
2022-11-18T09:53:47.497Z,67065.19
2022-11-18T09:56:16.298Z,67073.63
2022-11-18T09:58:45.048Z,67071.94
2022-11-18T10:01:17.482Z,67061.81
2022-11-18T10:03:44.944Z,67067.44
2022-11-18T10:06:24.958Z,67058.59
2022-11-18T10:08:58.632Z,67048.34
2022-11-18T10:11:40.132Z,67052.09
2022-11-18T10:14:27.333Z,67050.94
2022-11-18T10:17:04.346Z,67044.63
2022-11-18T10:19:40.318Z,67043.53
2022-11-18T10:25:15.639Z,67042.75
2022-11-18T10:27:45.745Z,67045.53
2022-11-18T10:30:17.080Z,67051.16
2022-11-18T10:33:22.041Z,67042.75
2022-11-18T10:35:50.129Z,67039.38
2022-11-18T10:38:19.359Z,67048.91
2022-11-18T10:40:52.802Z,67049.81
2022-11-18T10:43:43.708Z,67045.53
2022-11-18T10:46:30.268Z,67041.28
2022-11-18T10:49:10.052Z,67045.13
2022-11-18T10:51:42.082Z,67031.50
2022-11-18T10:54:14.319Z,67028.72
2022-11-18T10:56:57.816Z,67037.69
2022-11-18T10:59:33.952Z,67028.16
2022-11-18T11:02:15.732Z,67039.38
2022-11-18T11:04:44.803Z,67042.94
2022-11-18T11:07:19.361Z,67042.75
2022-11-18T11:10:00.390Z,67036.56
2022-11-18T11:12:31.215Z,67037.47
2022-11-18T11:15:11.596Z,67029.28
2022-11-18T11:18:16.567Z,67048.50
2022-11-18T11:20:44.477Z,67039.38
2022-11-18T11:23:22.061Z,67051.16
2022-11-18T11:29:17.096Z,67037.69
2022-11-18T11:31:47.420Z,67041.19
2022-11-18T11:34:26.884Z,67036.56
2022-11-18T11:37:09.571Z,67025.34
2022-11-18T11:39:37.080Z,67027.38
2022-11-18T11:42:43.723Z,67022.41
2022-11-18T11:45:29.755Z,67030.75
2022-11-18T11:48:15.840Z,67028.16
2022-11-18T11:51:02.043Z,67018.19
2022-11-18T11:54:00.468Z,67019.19
2022-11-18T11:56:49.876Z,67025.91
2022-11-18T11:59:20.404Z,67029.63
2022-11-18T12:02:13.023Z,67028.16
2022-11-18T12:04:58.625Z,67034.09
2022-11-18T12:07:30.120Z,67015.44
2022-11-18T12:10:22.209Z,67021.78
2022-11-18T12:12:58.994Z,67018.06
2022-11-18T12:15:53.948Z,67010.53
2022-11-18T12:18:24.669Z,67021.00
2022-11-18T12:20:54.144Z,67022.53
2022-11-18T12:23:29.924Z,67012.78
2022-11-18T12:26:04.720Z,67004.22
2022-11-18T12:28:41.607Z,67004.16
2022-11-18T12:31:18.245Z,67005.50
2022-11-18T12:33:46.554Z,67003.81
2022-11-18T12:36:33.713Z,67001.22
2022-11-18T12:39:25.965Z,66992.81
2022-11-18T12:42:12.775Z,66978.78
2022-11-18T12:44:41.810Z,66988.09
2022-11-18T12:47:14.292Z,66972.59
2022-11-18T12:49:44.776Z,66955.44
2022-11-18T12:52:41.057Z,66954.47
2022-11-18T12:55:25.039Z,66950.94
2022-11-18T12:57:52.720Z,66960.03
2022-11-18T13:00:32.728Z,66950.19
2022-11-18T13:03:02.576Z,66953.19
2022-11-18T13:05:36.166Z,66953.31
2022-11-18T13:08:13.375Z,66955.22
2022-11-18T13:10:46.087Z,66962.50
2022-11-18T13:13:32.504Z,66958.94
2022-11-18T13:16:43.820Z,66945.47
2022-11-18T13:19:25.362Z,66929.44
2022-11-18T13:22:17.188Z,66930.88
2022-11-18T13:24:52.583Z,66927.19
2022-11-18T13:27:44.717Z,66925.28
2022-11-18T13:30:14.269Z,66921.22
2022-11-18T13:32:47.363Z,66917.84
2022-11-18T13:35:17.792Z,66917.66
2022-11-18T13:37:55.282Z,66918.09
2022-11-18T13:41:03.396Z,66921.00
2022-11-18T13:43:35.378Z,66926.63
2022-11-18T13:46:08.951Z,66927.19
2022-11-18T13:48:44.417Z,66911.28
2022-11-18T13:51:12.742Z,66909.22
2022-11-18T13:53:41.278Z,66911.81
2022-11-18T13:56:20.540Z,66904.19
2022-11-18T14:01:40.549Z,66886.25
2022-11-18T14:04:19.391Z,66886.41
2022-11-18T14:06:47.051Z,66881.78
2022-11-18T14:09:15.060Z,66878.75
2022-11-18T14:11:57.812Z,66881.78
2022-11-18T14:14:45.088Z,66879.66
2022-11-18T14:17:22.890Z,66878.75
2022-11-18T14:19:53.110Z,66873.59
2022-11-18T14:22:22.230Z,66882.13
2022-11-18T14:25:23.003Z,66875.63
2022-11-18T14:27:55.772Z,66887.94
2022-11-18T14:30:36.577Z,66887.94
2022-11-18T14:33:20.954Z,66883.59
2022-11-18T14:36:16.565Z,66880.78
2022-11-18T14:39:24.966Z,66889.06
2022-11-18T14:41:50.149Z,66883.81
2022-11-18T14:44:19.671Z,66889.06
2022-11-18T14:46:53.778Z,66886.03
2022-11-18T14:49:23.854Z,66891.09
2022-11-18T14:51:56.849Z,66883.47
2022-11-18T14:54:27.663Z,66886.03
2022-11-18T14:56:58.542Z,66882.13
2022-11-18T14:59:26.232Z,66872.44
2022-11-18T15:01:53.660Z,66889.41
2022-11-18T15:04:35.872Z,66888.28
2022-11-18T15:07:03.252Z,66895.56
2022-11-18T15:09:31.291Z,66892.75
2022-11-18T15:11:58.953Z,66886.81
2022-11-18T15:14:26.466Z,66886.03
2022-11-18T15:16:59.614Z,66883.66
2022-11-18T15:19:32.216Z,66881.78
2022-11-18T15:22:01.223Z,66888.50
2022-11-18T15:24:28.513Z,66884.56
2022-11-18T15:27:06.336Z,66892.41
2022-11-18T15:29:33.991Z,66897.81
2022-11-18T15:32:05.152Z,66901.94
2022-11-18T15:34:34.198Z,66901.63
2022-11-18T15:37:02.074Z,66886.81
2022-11-18T15:39:31.244Z,66892.41
2022-11-18T15:41:58.891Z,66895.56
2022-11-18T15:44:26.618Z,66903.44
2022-11-18T15:46:54.116Z,66906.22
2022-11-18T15:49:22.117Z,66906.22
2022-11-18T15:51:49.692Z,66892.41
2022-11-18T15:54:19.002Z,66901.38
2022-11-18T15:56:46.550Z,66888.72
2022-11-18T15:59:15.363Z,66903.63
2022-11-18T16:01:54.930Z,66917.22
2022-11-18T16:04:23.164Z,66910.50
2022-11-18T16:06:50.610Z,66897.81
2022-11-18T16:09:18.472Z,66903.78
2022-11-18T16:12:12.299Z,66893.53
2022-11-18T16:14:40.285Z,66901.19
2022-11-18T16:17:07.743Z,66899.50
2022-11-18T16:19:35.205Z,66851.00
2022-11-18T16:22:02.689Z,66902.53
2022-11-18T16:24:30.205Z,66904.53
2022-11-18T16:26:57.813Z,66903.44
2022-11-18T16:29:25.498Z,66897.47
2022-11-18T16:31:54.380Z,66895.56
2022-11-18T16:34:35.730Z,66885.69
2022-11-18T16:37:05.057Z,66882.13
2022-11-18T16:39:32.539Z,66888.28
2022-11-18T16:42:08.283Z,66884.38
2022-11-18T16:44:37.364Z,66882.69
2022-11-18T16:47:12.477Z,66878.41
2022-11-18T16:49:44.165Z,66883.09
2022-11-18T16:52:11.813Z,66891.09
2022-11-18T16:54:44.743Z,66887.94
2022-11-18T16:57:29.475Z,66891.09
2022-11-18T17:00:19.988Z,66882.69
2022-11-18T17:02:47.382Z,66887.16
2022-11-18T17:05:14.773Z,66884.38
2022-11-18T17:07:42.401Z,66884.56
2022-11-18T17:10:19.781Z,66893.66
2022-11-18T17:12:48.236Z,66879.75
2022-11-18T17:15:16.469Z,66871.13
2022-11-18T17:17:44.013Z,66867.00
2022-11-18T17:20:12.240Z,66863.84
2022-11-18T17:22:40.411Z,66854.66
2022-11-18T17:25:08.108Z,66847.59
2022-11-18T17:27:35.832Z,66850.16
2022-11-18T17:30:05.801Z,66847.59
2022-11-18T17:32:36.156Z,66846.25
2022-11-18T17:35:03.734Z,66847.59
2022-11-18T17:37:31.395Z,66837.84
2022-11-18T17:40:02.128Z,66837.84
2022-11-18T17:42:34.250Z,66828.19
2022-11-18T17:45:01.701Z,66828.53
2022-11-18T17:47:41.662Z,66839.19
2022-11-18T17:50:10.659Z,66839.53
2022-11-18T17:52:38.241Z,66852.75
2022-11-18T17:55:12.174Z,66843.47
2022-11-18T17:57:39.655Z,66827.97
2022-11-18T18:00:08.884Z,66828.19
2022-11-18T18:02:37.202Z,66828.53
2022-11-18T18:05:05.114Z,66831.69
2022-11-18T18:07:32.751Z,66832.81
2022-11-18T18:10:03.607Z,66846.59
2022-11-18T18:12:50.395Z,66833.25
2022-11-18T18:15:24.138Z,66832.47
2022-11-18T18:17:52.832Z,66835.59
2022-11-18T18:20:20.432Z,66832.47
2022-11-18T18:22:47.861Z,66836.38
2022-11-18T18:25:15.524Z,66842.88
2022-11-18T18:27:42.851Z,66833.38
2022-11-18T18:30:11.153Z,66839.19
2022-11-18T18:32:38.599Z,66835.41
2022-11-18T18:35:11.499Z,66838.63
2022-11-18T18:37:59.268Z,66832.03
2022-11-18T18:40:26.676Z,66830.44
2022-11-18T18:42:54.174Z,66835.47
2022-11-18T18:45:40.270Z,66830.78
2022-11-18T18:48:07.687Z,66828.88
2022-11-18T18:50:35.131Z,66829.78
2022-11-18T18:53:02.586Z,66828.66
2022-11-18T18:55:30.367Z,66830.56
2022-11-18T18:57:57.787Z,66826.06
2022-11-18T19:00:25.083Z,66825.53
2022-11-18T19:02:56.157Z,66832.47
2022-11-18T19:05:45.886Z,66824.25
2022-11-18T19:08:17.334Z,66826.06
2022-11-18T19:10:46.625Z,66823.84
2022-11-18T19:13:14.006Z,66814.31
2022-11-18T19:15:44.775Z,66806.47
2022-11-18T19:18:12.336Z,66806.25
2022-11-18T19:20:50.974Z,66798.97
2022-11-18T19:23:26.489Z,66794.91
2022-11-18T19:26:10.169Z,66794.91
2022-11-18T19:28:39.923Z,66789.66
2022-11-18T19:31:07.959Z,66791.00
2022-11-18T19:33:35.337Z,66786.53
2022-11-18T19:36:09.080Z,66780.72
2022-11-18T19:38:37.685Z,66785.75
2022-11-18T19:41:10.530Z,66787.44
2022-11-18T19:43:38.698Z,66802.00
2022-11-18T19:46:07.291Z,66803.69
2022-11-18T19:48:35.495Z,66802.91
2022-11-18T19:51:14.580Z,66796.94
2022-11-18T19:53:42.390Z,66802.91
2022-11-18T20:00:18.040Z,66791.00
2022-11-18T20:02:47.349Z,66797.28
2022-11-18T20:05:39.581Z,66798.06
2022-11-18T20:08:13.794Z,66798.44
2022-11-18T20:14:05.271Z,66793.03
2022-11-18T20:16:36.479Z,66798.06
2022-11-18T20:19:10.785Z,66802.00
2022-11-18T20:21:39.336Z,66802.34
2022-11-18T20:24:08.775Z,66795.50
2022-11-18T20:26:46.166Z,66797.28
2022-11-18T20:29:13.642Z,66805.91
2022-11-18T20:31:42.217Z,66798.63
2022-11-18T20:34:13.286Z,66795.84
2022-11-18T20:36:41.607Z,66799.75
2022-11-18T20:43:50.635Z,66801.66
2022-11-18T20:46:21.320Z,66799.41
2022-11-18T20:48:50.166Z,66812.06
2022-11-18T20:51:23.658Z,66804.13
2022-11-18T20:53:56.026Z,66803.09
2022-11-18T20:56:26.242Z,66813.75
2022-11-18T20:58:54.153Z,66802.00
2022-11-18T21:01:25.093Z,66795.84
2022-11-18T21:04:05.254Z,66799.75
2022-11-18T21:06:33.369Z,66797.50
2022-11-18T21:09:03.279Z,66808.72
2022-11-18T21:11:34.847Z,66798.97
2022-11-18T21:14:24.787Z,66749.31
2022-11-18T21:16:55.717Z,66794.72
2022-11-18T21:19:24.599Z,66802.00
2022-11-18T21:21:53.875Z,66800.88
2022-11-18T21:24:49.071Z,66796.59
2022-11-18T21:27:17.889Z,66786.31
2022-11-18T21:29:49.968Z,66787.78
2022-11-18T21:32:17.380Z,66785.41
2022-11-18T21:34:44.973Z,66779.38
2022-11-18T21:37:13.435Z,66770.41
2022-11-18T21:39:40.929Z,66771.19
2022-11-18T21:42:08.584Z,66761.31
2022-11-18T21:44:36.100Z,66762.03
2022-11-18T21:47:04.552Z,66765.38
2022-11-18T21:49:32.407Z,66764.81
2022-11-18T21:52:00.346Z,66766.38
2022-11-18T21:54:27.702Z,66763.91
2022-11-18T21:56:55.214Z,66760.19
2022-11-18T21:59:23.739Z,66757.41
2022-11-18T22:01:52.152Z,66751.38
2022-11-18T22:04:38.793Z,66743.00
2022-11-18T22:07:06.395Z,66737.59
2022-11-18T22:09:37.002Z,66734.22
2022-11-18T22:12:06.888Z,66727.72
2022-11-18T22:14:35.081Z,66726.41
2022-11-18T22:17:02.975Z,66719.13
2022-11-18T22:19:30.916Z,66712.75
2022-11-18T22:21:58.202Z,66709.59
2022-11-18T22:24:25.835Z,66705.47
2022-11-18T22:26:53.223Z,66712.97
2022-11-18T22:29:20.930Z,66714.28
2022-11-18T22:31:48.515Z,66721.69
2022-11-18T22:34:15.916Z,66710.16
2022-11-18T22:36:43.253Z,66712.75
2022-11-18T22:39:10.792Z,66701.75
2022-11-18T22:41:57.616Z,66662.38
2022-11-18T22:44:25.026Z,66709.28
2022-11-18T22:46:53.738Z,66713.41
2022-11-18T22:49:21.767Z,66715.78
2022-11-18T22:51:49.281Z,66721.13
2022-11-18T22:54:42.107Z,66721.38
2022-11-18T22:57:09.616Z,66713.31
2022-11-18T22:59:38.324Z,66708.25
2022-11-18T23:02:06.029Z,66704.56
2022-11-18T23:04:33.776Z,66705.69
2022-11-18T23:07:02.342Z,66706.81
2022-11-18T23:09:29.765Z,66714.44
2022-11-18T23:12:15.608Z,66723.94
2022-11-18T23:14:46.224Z,66710.16
2022-11-18T23:17:13.832Z,66716.66
2022-11-18T23:19:43.966Z,66705.34
2022-11-18T23:22:12.137Z,66699.75
2022-11-18T23:24:39.904Z,66692.81
2022-11-18T23:27:07.461Z,66646.91
2022-11-18T23:29:36.257Z,66690.91
2022-11-18T23:32:03.972Z,66686.09
2022-11-18T23:34:31.409Z,66686.66
2022-11-18T23:36:58.804Z,66683.31
2022-11-18T23:39:26.285Z,66689.81
2022-11-18T23:41:53.670Z,66690.25
2022-11-18T23:44:41.053Z,66704.91
2022-11-18T23:47:08.424Z,66699.53
2022-11-18T23:49:35.865Z,66703.25
2022-11-18T23:52:03.310Z,66704.22
2022-11-18T23:54:30.674Z,66694.50
2022-11-18T23:56:58.344Z,66697.28
2022-11-18T23:59:25.956Z,66687.00
